Time;durP1;ratioP1;P1;durP2;ratioP2;P2;SDS_P1;SDS_P2;PMS_P1;PMS_P2;Temp;Humidity;BMP_temperature;BMP_pressure;BME280_temperature;BME280_humidity;BME280_pressure;Samples;Min_cycle;Max_cycle;Signal;HPM_P1;HPM_P2
2021/10/21 00:01:20;;;;;;;7.93;3.73;;;15.50;99.90;;;;;;5038972;28;20745;-76
2021/10/21 00:04:06;;;;;;;3.70;3.20;;;15.50;99.90;;;;;;5032000;28;20428;-76
2021/10/21 00:06:52;;;;;;;4.37;3.20;;;15.50;99.90;;;;;;5031821;28;20543;-76
2021/10/21 00:09:39;;;;;;;4.00;3.00;;;15.50;99.90;;;;;;5027869;28;20806;-76
2021/10/21 00:12:24;;;;;;;4.40;2.83;;;15.50;99.90;;;;;;5035082;28;20432;-76
2021/10/21 00:15:11;;;;;;;4.57;2.37;;;15.60;99.90;;;;;;5033414;28;20779;-76
2021/10/21 00:17:57;;;;;;;3.03;2.30;;;15.40;99.90;;;;;;5028872;28;20425;-76
2021/10/21 00:20:43;;;;;;;3.27;2.30;;;15.40;99.90;;;;;;5031388;28;20969;-76
2021/10/21 00:23:28;;;;;;;3.57;2.10;;;15.50;99.90;;;;;;5032796;28;20892;-76
2021/10/21 00:26:15;;;;;;;3.10;2.03;;;15.40;99.90;;;;;;5030744;28;20515;-76
2021/10/21 00:29:01;;;;;;;2.80;2.00;;;15.50;99.90;;;;;;5033723;28;20450;-76
2021/10/21 00:31:47;;;;;;;2.70;1.80;;;15.50;99.90;;;;;;5030531;28;20392;-76
2021/10/21 00:34:32;;;;;;;3.30;2.10;;;15.50;99.90;;;;;;5033236;28;20851;-76
2021/10/21 00:37:18;;;;;;;2.60;2.00;;;15.50;99.90;;;;;;5032323;28;20956;-76
2021/10/21 00:40:05;;;;;;;3.37;2.30;;;15.60;99.90;;;;;;5032717;28;20456;-76
2021/10/21 00:42:52;;;;;;;3.30;1.90;;;15.70;99.90;;;;;;5031274;28;20495;-76
2021/10/21 00:45:38;;;;;;;3.40;2.13;;;15.60;99.90;;;;;;5025655;28;20425;-76
2021/10/21 00:48:24;;;;;;;3.13;2.10;;;15.70;99.90;;;;;;5032334;28;20481;-76
2021/10/21 00:51:13;;;;;;;5.17;2.20;;;15.70;99.90;;;;;;5029594;28;20547;-76
2021/10/21 00:53:59;;;;;;;5.27;2.57;;;15.80;99.90;;;;;;5032276;28;20417;-76
2021/10/21 00:56:46;;;;;;;3.37;2.00;;;15.70;99.90;;;;;;5030121;28;20467;-76
2021/10/21 00:59:35;;;;;;;2.73;2.20;;;15.80;99.90;;;;;;5035096;28;20545;-76
2021/10/21 01:02:20;;;;;;;4.30;2.53;;;15.80;99.90;;;;;;5035743;28;20444;-76
2021/10/21 01:05:07;;;;;;;5.40;2.50;;;15.90;99.90;;;;;;5030228;28;20420;-76
2021/10/21 01:07:54;;;;;;;4.33;3.07;;;15.90;99.90;;;;;;5028553;28;21123;-76
2021/10/21 01:10:40;;;;;;;3.13;2.67;;;15.90;99.90;;;;;;5034265;28;20981;-76
2021/10/21 01:13:25;;;;;;;3.83;2.60;;;15.90;99.90;;;;;;5031155;28;20830;-76
2021/10/21 01:16:14;;;;;;;3.40;2.77;;;16.00;99.90;;;;;;5029101;28;21118;-76
2021/10/21 01:19:00;;;;;;;6.17;2.60;;;16.10;99.90;;;;;;5032841;28;20457;-76
2021/10/21 01:21:50;;;;;;;3.10;2.17;;;16.10;99.90;;;;;;5028810;28;20630;-76
2021/10/21 01:24:36;;;;;;;2.37;2.00;;;16.10;99.90;;;;;;5025936;28;20466;-76
2021/10/21 01:27:21;;;;;;;4.10;2.57;;;16.20;99.90;;;;;;5032162;28;20448;-76
2021/10/21 01:30:09;;;;;;;5.70;2.77;;;16.20;99.90;;;;;;5028676;28;20460;-76
2021/10/21 01:32:56;;;;;;;4.97;2.87;;;16.20;99.90;;;;;;5024520;28;20458;-75
2021/10/21 01:35:42;;;;;;;2.50;2.10;;;16.20;99.90;;;;;;5028936;28;20449;-75
2021/10/21 01:38:29;;;;;;;3.40;2.47;;;16.30;99.90;;;;;;5030964;28;20472;-74
2021/10/21 01:41:15;;;;;;;4.50;2.30;;;16.40;99.90;;;;;;5026532;28;20427;-75
2021/10/21 01:44:01;;;;;;;4.40;2.57;;;16.50;99.90;;;;;;5025598;28;20419;-76
2021/10/21 01:46:47;;;;;;;3.70;2.10;;;16.50;99.90;;;;;;5030280;28;20448;-76
2021/10/21 01:49:33;;;;;;;3.20;2.10;;;16.50;99.90;;;;;;5024285;28;20471;-76
2021/10/21 01:52:18;;;;;;;3.07;2.40;;;16.50;99.90;;;;;;5029249;28;20555;-76
2021/10/21 01:55:07;;;;;;;4.30;2.60;;;16.50;99.90;;;;;;5021213;28;20833;-75
2021/10/21 01:57:53;;;;;;;2.90;2.20;;;16.50;99.90;;;;;;5023016;28;20447;-76
2021/10/21 02:00:38;;;;;;;3.50;2.50;;;16.50;99.90;;;;;;5032252;28;20452;-76
2021/10/21 02:03:24;;;;;;;3.30;2.67;;;16.50;99.90;;;;;;5028300;28;20829;-76
2021/10/21 02:06:10;;;;;;;3.37;2.60;;;16.60;99.90;;;;;;5027170;28;20821;-76
2021/10/21 02:08:56;;;;;;;3.20;1.90;;;16.60;99.90;;;;;;5024195;28;20542;-76
2021/10/21 02:11:43;;;;;;;3.20;2.40;;;16.60;99.90;;;;;;5023450;28;20818;-76
2021/10/21 02:14:28;;;;;;;3.27;2.77;;;16.60;99.90;;;;;;5028122;28;20551;-76
2021/10/21 02:17:14;;;;;;;4.50;2.67;;;16.60;99.90;;;;;;5026458;28;20428;-76
2021/10/21 02:20:00;;;;;;;4.17;2.87;;;16.60;99.90;;;;;;5028009;28;20518;-76
2021/10/21 02:22:49;;;;;;;3.07;2.23;;;16.50;99.90;;;;;;5028588;28;20460;-76
2021/10/21 02:25:35;;;;;;;3.33;2.57;;;16.50;99.90;;;;;;5026744;28;20482;-76
2021/10/21 02:28:22;;;;;;;4.23;3.10;;;16.50;99.90;;;;;;5022386;28;20984;-76
2021/10/21 02:31:08;;;;;;;3.70;2.67;;;16.50;99.90;;;;;;5025879;28;20497;-76
2021/10/21 02:33:53;;;;;;;3.30;2.30;;;16.40;99.90;;;;;;5024540;28;20460;-76
2021/10/21 02:36:39;;;;;;;4.00;3.00;;;16.30;99.90;;;;;;5028445;28;20433;-76
2021/10/21 02:39:25;;;;;;;4.37;3.00;;;16.20;99.90;;;;;;5024680;28;20448;-76
2021/10/21 02:42:10;;;;;;;5.63;3.33;;;16.10;99.90;;;;;;5025388;28;20599;-76
2021/10/21 02:44:58;;;;;;;3.87;3.10;;;16.00;99.90;;;;;;5024091;28;20611;-76
2021/10/21 02:47:44;;;;;;;4.77;3.20;;;15.90;99.90;;;;;;5023894;28;20473;-76
2021/10/21 02:50:30;;;;;;;4.10;3.63;;;15.90;99.90;;;;;;5024308;28;20959;-76
2021/10/21 02:53:15;;;;;;;4.60;3.60;;;15.80;99.90;;;;;;5028245;28;20464;-76
2021/10/21 02:56:01;;;;;;;5.27;3.77;;;15.70;99.90;;;;;;5025017;28;20423;-76
2021/10/21 02:58:47;;;;;;;6.00;3.80;;;15.70;99.90;;;;;;5024671;28;20519;-76
2021/10/21 03:01:34;;;;;;;5.43;4.07;;;15.80;99.90;;;;;;5024329;28;20423;-76
2021/10/21 03:04:20;;;;;;;4.83;4.30;;;15.70;99.90;;;;;;5023403;28;20448;-76
2021/10/21 03:07:06;;;;;;;10.13;4.50;;;15.60;99.90;;;;;;5024173;28;21040;-76
2021/10/21 03:09:51;;;;;;;5.70;4.43;;;15.60;99.90;;;;;;5024171;28;20485;-76
2021/10/21 03:12:37;;;;;;;7.80;4.77;;;15.70;99.90;;;;;;5029504;28;20470;-76
2021/10/21 03:15:23;;;;;;;6.63;4.27;;;15.60;99.90;;;;;;5028825;28;20439;-76
2021/10/21 03:18:10;;;;;;;6.90;4.23;;;15.60;99.90;;;;;;5028815;28;20490;-75
2021/10/21 03:20:56;;;;;;;6.97;3.80;;;15.60;99.90;;;;;;5030221;28;20431;-76
2021/10/21 03:23:41;;;;;;;5.90;3.10;;;15.60;99.90;;;;;;5029664;28;20954;-76
2021/10/21 03:26:27;;;;;;;5.30;3.10;;;15.50;99.90;;;;;;5031329;28;20435;-76
2021/10/21 03:29:13;;;;;;;3.10;2.40;;;15.50;99.90;;;;;;5029984;28;21046;-76
2021/10/21 03:31:58;;;;;;;4.10;1.73;;;15.50;99.90;;;;;;5029364;28;20426;-76
2021/10/21 03:34:46;;;;;;;2.27;1.70;;;15.40;99.90;;;;;;5029042;28;21056;-76
2021/10/21 03:37:32;;;;;;;5.13;1.80;;;15.30;99.90;;;;;;5030997;28;20422;-76
2021/10/21 03:40:17;;;;;;;2.17;1.67;;;15.30;99.90;;;;;;5030551;28;20463;-76
2021/10/21 03:43:03;;;;;;;2.83;1.50;;;15.20;99.90;;;;;;5029477;28;20930;-76
2021/10/21 03:45:48;;;;;;;2.97;1.10;;;15.10;99.90;;;;;;5027161;28;20479;-76
2021/10/21 03:48:34;;;;;;;1.83;1.03;;;15.10;99.90;;;;;;5026234;28;20479;-76
2021/10/21 03:51:21;;;;;;;1.80;1.10;;;15.00;99.90;;;;;;5032529;28;20451;-76
2021/10/21 03:54:12;;;;;;;2.03;0.90;;;15.00;99.90;;;;;;5028284;28;20452;-76
2021/10/21 03:56:58;;;;;;;1.83;0.90;;;14.90;99.90;;;;;;5029039;28;20439;-75
2021/10/21 03:59:44;;;;;;;2.37;1.10;;;14.90;99.90;;;;;;5028730;28;20561;-76
2021/10/21 04:02:30;;;;;;;6.77;1.30;;;14.80;99.90;;;;;;5029519;28;20467;-76
2021/10/21 04:05:15;;;;;;;5.30;1.50;;;14.70;99.90;;;;;;5029601;28;20515;-76
2021/10/21 04:08:02;;;;;;;8.10;1.30;;;14.70;99.90;;;;;;5028016;28;20953;-76
2021/10/21 04:10:48;;;;;;;7.23;1.10;;;14.60;99.90;;;;;;5028435;28;20909;-76
2021/10/21 04:13:34;;;;;;;5.20;1.23;;;14.50;99.90;;;;;;5027866;28;20944;-76
2021/10/21 04:16:20;;;;;;;7.20;1.90;;;14.50;99.90;;;;;;5029959;28;20471;-76
2021/10/21 04:19:06;;;;;;;15.50;1.50;;;14.50;99.90;;;;;;5029157;28;20546;-73
2021/10/21 04:21:51;;;;;;;3.50;0.83;;;14.50;99.90;;;;;;5028962;28;20422;-75
2021/10/21 04:24:38;;;;;;;6.50;1.30;;;14.40;99.90;;;;;;5027133;28;20972;-75
2021/10/21 04:27:24;;;;;;;6.43;1.77;;;14.40;99.90;;;;;;5034664;28;20962;-76
2021/10/21 04:30:11;;;;;;;4.23;0.90;;;14.50;99.90;;;;;;5028643;28;20589;-76
2021/10/21 04:32:57;;;;;;;5.63;1.90;;;14.40;99.90;;;;;;5029045;28;20463;-76
2021/10/21 04:35:42;;;;;;;7.30;1.63;;;14.40;99.90;;;;;;5031203;28;20420;-76
2021/10/21 04:38:28;;;;;;;4.07;1.20;;;14.40;99.90;;;;;;5032604;28;20476;-76
2021/10/21 04:41:14;;;;;;;9.90;1.70;;;14.40;99.90;;;;;;5059423;22;20517;-76
2021/10/21 04:44:00;;;;;;;7.23;1.60;;;14.30;99.90;;;;;;5050164;28;20453;-76
2021/10/21 04:46:46;;;;;;;10.27;1.33;;;14.30;99.90;;;;;;5049038;28;20799;-77
2021/10/21 04:49:32;;;;;;;7.60;1.40;;;14.40;99.90;;;;;;5064701;28;20520;-77
2021/10/21 04:52:18;;;;;;;12.73;1.43;;;14.40;99.90;;;;;;5054924;28;20459;-76
2021/10/21 04:55:05;;;;;;;6.27;1.30;;;14.40;99.90;;;;;;5055963;28;20517;-77
2021/10/21 04:57:53;;;;;;;5.93;1.57;;;14.40;99.90;;;;;;5061728;28;20472;-77
2021/10/21 05:00:38;;;;;;;11.23;2.10;;;14.40;99.90;;;;;;5052372;28;20455;-77
2021/10/21 05:03:24;;;;;;;8.10;1.90;;;14.40;99.90;;;;;;5064344;28;20430;-77
2021/10/21 05:06:10;;;;;;;23.93;2.20;;;14.50;99.90;;;;;;5054837;28;20856;-76
2021/10/21 05:08:55;;;;;;;5.73;1.53;;;14.50;99.90;;;;;;5059895;28;20458;-78
2021/10/21 05:11:41;;;;;;;13.50;1.80;;;14.50;99.90;;;;;;5063666;28;20404;-77
2021/10/21 05:14:28;;;;;;;7.03;1.60;;;14.40;99.90;;;;;;5059801;28;20447;-77
2021/10/21 05:17:14;;;;;;;8.70;2.23;;;14.50;99.90;;;;;;5061796;28;20473;-77
2021/10/21 05:20:00;;;;;;;8.10;1.93;;;14.50;99.90;;;;;;5065451;28;20578;-78
2021/10/21 05:22:46;;;;;;;5.43;2.10;;;14.50;99.90;;;;;;5058177;28;20954;-77
2021/10/21 05:25:31;;;;;;;14.30;1.70;;;14.50;99.90;;;;;;5056840;28;20414;-77
2021/10/21 05:28:17;;;;;;;6.13;1.83;;;14.50;99.90;;;;;;5060468;28;20401;-77
2021/10/21 05:31:04;;;;;;;15.37;2.13;;;14.50;99.90;;;;;;5057574;28;20469;-76
2021/10/21 05:33:50;;;;;;;11.40;2.00;;;14.40;99.90;;;;;;5058969;28;20781;-77
2021/10/21 05:36:35;;;;;;;7.50;1.33;;;14.40;99.90;;;;;;5056541;28;20522;-77
2021/10/21 05:39:21;;;;;;;14.73;1.80;;;14.40;99.90;;;;;;5062593;28;20402;-77
2021/10/21 05:42:06;;;;;;;23.13;1.60;;;14.50;99.90;;;;;;5061684;28;20990;-78
2021/10/21 05:44:52;;;;;;;6.73;1.63;;;14.40;99.90;;;;;;5056645;28;20450;-77
2021/10/21 05:47:41;;;;;;;6.40;1.40;;;14.40;99.90;;;;;;5055504;28;20480;-77
2021/10/21 05:50:27;;;;;;;8.23;1.20;;;14.40;99.90;;;;;;5057940;28;20442;-77
2021/10/21 05:53:13;;;;;;;36.43;3.13;;;14.30;99.90;;;;;;5058685;28;20963;-78
2021/10/21 05:55:59;;;;;;;5.17;2.07;;;14.30;99.90;;;;;;5061607;28;20580;-77
2021/10/21 05:58:45;;;;;;;6.30;1.80;;;14.30;99.90;;;;;;5060297;28;20469;-77
2021/10/21 06:01:31;;;;;;;4.80;1.50;;;14.30;99.90;;;;;;5059098;28;20476;-78
2021/10/21 06:04:18;;;;;;;17.70;2.47;;;14.30;99.90;;;;;;5063468;28;20454;-78
2021/10/21 06:07:05;;;;;;;8.10;1.70;;;14.30;99.90;;;;;;5057070;28;20451;-77
2021/10/21 06:09:52;;;;;;;4.60;1.43;;;14.20;99.90;;;;;;5057867;28;20482;-77
2021/10/21 06:12:37;;;;;;;5.63;1.23;;;14.20;99.90;;;;;;5064208;28;20490;-77
2021/10/21 06:15:23;;;;;;;6.30;1.57;;;14.20;99.90;;;;;;5057931;28;20896;-77
2021/10/21 06:18:12;;;;;;;4.40;1.33;;;14.20;99.90;;;;;;5053751;28;20475;-75
2021/10/21 06:21:00;;;;;;;10.87;1.70;;;14.20;99.90;;;;;;5067518;28;20408;-77
2021/10/21 06:23:45;;;;;;;8.10;1.73;;;14.20;99.90;;;;;;5054752;28;20536;-77
2021/10/21 06:26:31;;;;;;;7.20;2.07;;;14.20;99.90;;;;;;5060298;28;20449;-77
2021/10/21 06:29:16;;;;;;;8.50;2.57;;;14.20;99.90;;;;;;5059674;28;20472;-77
2021/10/21 06:32:04;;;;;;;4.70;1.50;;;14.20;99.90;;;;;;5058045;28;20447;-77
2021/10/21 06:34:49;;;;;;;9.13;1.27;;;14.30;99.90;;;;;;5057151;28;20527;-77
2021/10/21 06:37:36;;;;;;;4.87;1.07;;;14.20;99.90;;;;;;5059245;28;20457;-77
2021/10/21 06:40:22;;;;;;;11.37;1.30;;;14.30;99.90;;;;;;5061990;28;20474;-77
2021/10/21 06:43:08;;;;;;;6.00;1.40;;;14.20;99.90;;;;;;5065456;28;20498;-77
2021/10/21 06:45:54;;;;;;;5.10;1.20;;;14.20;99.90;;;;;;5062880;28;20952;-78
2021/10/21 06:48:40;;;;;;;4.60;1.30;;;14.10;99.90;;;;;;5062308;28;20546;-77
2021/10/21 06:51:26;;;;;;;6.00;1.00;;;13.90;99.90;;;;;;5062892;28;20445;-77
2021/10/21 06:54:13;;;;;;;3.23;0.80;;;13.90;99.90;;;;;;5059674;28;20430;-76
2021/10/21 06:56:59;;;;;;;6.57;1.60;;;13.90;99.90;;;;;;5053301;28;20458;-74
2021/10/21 06:59:44;;;;;;;9.63;0.90;;;13.90;99.90;;;;;;5058798;28;20458;-77
2021/10/21 07:02:29;;;;;;;6.23;1.00;;;13.90;99.90;;;;;;5054862;28;20518;-76
2021/10/21 07:05:16;;;;;;;2.90;0.93;;;13.90;99.90;;;;;;5055660;28;20640;-76
2021/10/21 07:08:02;;;;;;;5.63;1.13;;;13.80;99.90;;;;;;5051128;28;20501;-76
2021/10/21 07:10:49;;;;;;;2.47;0.70;;;13.70;99.90;;;;;;5052218;28;20748;-77
2021/10/21 07:13:35;;;;;;;6.70;0.90;;;13.60;99.90;;;;;;5057433;28;20478;-76
2021/10/21 07:16:20;;;;;;;20.43;1.83;;;13.60;99.90;;;;;;5053954;28;20401;-75
2021/10/21 07:19:07;;;;;;;1.90;0.63;;;13.60;99.90;;;;;;5054591;28;20432;-76
2021/10/21 07:21:52;;;;;;;3.60;1.00;;;13.50;99.90;;;;;;5060442;28;20422;-76
2021/10/21 07:24:39;;;;;;;4.90;1.70;;;13.50;99.90;;;;;;5055318;28;20497;-75
2021/10/21 07:27:26;;;;;;;2.93;0.73;;;13.50;99.90;;;;;;5065804;28;20401;-76
2021/10/21 07:30:14;;;;;;;6.57;0.90;;;13.40;99.90;;;;;;5056147;28;20495;-76
2021/10/21 07:33:00;;;;;;;7.83;1.07;;;13.40;99.90;;;;;;5048195;28;20474;-77
2021/10/21 07:35:45;;;;;;;4.00;0.87;;;13.40;99.90;;;;;;5058807;28;20489;-77
2021/10/21 07:38:31;;;;;;;9.70;1.40;;;13.50;99.90;;;;;;5055291;28;20771;-76
2021/10/21 07:41:18;;;;;;;6.17;1.20;;;13.50;99.90;;;;;;5054519;28;20475;-75
2021/10/21 07:44:05;;;;;;;3.10;0.70;;;13.40;99.90;;;;;;5054935;28;20423;-77
2021/10/21 07:46:51;;;;;;;1.83;0.50;;;13.40;99.90;;;;;;5054317;28;20427;-76
2021/10/21 07:49:37;;;;;;;6.50;1.03;;;13.40;99.90;;;;;;5050030;28;20605;-76
2021/10/21 07:52:23;;;;;;;3.80;0.70;;;13.30;99.90;;;;;;5054102;28;20469;-76
2021/10/21 07:55:09;;;;;;;1.37;0.40;;;13.30;99.90;;;;;;5050882;28;20459;-77
2021/10/21 07:57:55;;;;;;;3.50;0.90;;;13.30;99.90;;;;;;5047404;28;20455;-73
2021/10/21 08:00:43;;;;;;;2.27;0.60;;;13.20;99.90;;;;;;5045826;28;20813;-77
2021/10/21 08:03:28;;;;;;;1.63;0.60;;;13.30;99.90;;;;;;5055670;28;21370;-77
2021/10/21 08:06:14;;;;;;;2.20;0.60;;;13.20;99.90;;;;;;5059093;28;20420;-79
2021/10/21 08:09:03;;;;;;;2.63;0.70;;;13.00;99.90;;;;;;5054686;28;20806;-77
2021/10/21 08:11:50;;;;;;;2.63;0.80;;;13.00;99.90;;;;;;5060598;28;20422;-77
2021/10/21 08:14:36;;;;;;;4.03;0.70;;;13.00;99.90;;;;;;5056383;28;20445;-77
2021/10/21 08:17:23;;;;;;;2.73;0.63;;;12.90;99.90;;;;;;5057916;28;20450;-77
2021/10/21 08:20:11;;;;;;;1.20;0.50;;;12.90;99.90;;;;;;5058303;28;21025;-78
2021/10/21 08:22:57;;;;;;;3.27;0.73;;;12.90;99.90;;;;;;5069559;28;20442;-78
2021/10/21 08:25:43;;;;;;;3.03;0.60;;;12.80;99.90;;;;;;5061248;28;20431;-77
2021/10/21 08:28:28;;;;;;;4.60;0.70;;;12.70;99.90;;;;;;5069692;28;20760;-77
2021/10/21 08:31:15;;;;;;;2.10;0.63;;;12.80;99.90;;;;;;5056760;28;20487;-77
2021/10/21 08:34:01;;;;;;;2.23;0.70;;;12.80;99.90;;;;;;5054954;28;20527;-76
2021/10/21 08:36:47;;;;;;;1.43;0.60;;;12.70;99.90;;;;;;5051123;28;20781;-77
2021/10/21 08:39:35;;;;;;;1.30;0.50;;;12.70;99.90;;;;;;5055269;28;20466;-77
2021/10/21 08:42:21;;;;;;;2.47;0.73;;;12.60;99.90;;;;;;5064744;28;20409;-77
2021/10/21 08:45:08;;;;;;;2.50;1.10;;;12.50;99.90;;;;;;5057098;28;20439;-77
2021/10/21 08:47:58;;;;;;;5.00;0.70;;;12.60;99.90;;;;;;5056709;28;20430;-77
2021/10/21 08:50:48;;;;;;;2.80;0.60;;;12.60;99.90;;;;;;5062403;28;20448;-77
2021/10/21 08:53:34;;;;;;;3.00;0.90;;;12.60;99.90;;;;;;5042860;28;20826;-77
2021/10/21 08:56:22;;;;;;;2.57;0.60;;;12.60;99.90;;;;;;5057130;28;20528;-77
2021/10/21 08:59:08;;;;;;;2.20;0.93;;;12.40;99.90;;;;;;5056332;28;20512;-78
2021/10/21 09:02:04;;;;;;;1.93;0.70;;;12.50;99.90;;;;;;5052554;28;20515;-77
2021/10/21 09:04:57;;;;;;;1.40;0.50;;;12.50;99.90;;;;;;5065846;28;20494;-77
2021/10/21 09:07:58;;;;;;;3.97;0.70;;;12.60;99.90;;;;;;5054596;28;20427;-75
2021/10/21 09:10:49;;;;;;;2.63;0.60;;;12.70;99.90;;;;;;5051609;28;21105;-76
2021/10/21 09:13:38;;;;;;;2.20;0.70;;;12.70;99.90;;;;;;5056874;28;20405;-77
2021/10/21 09:16:24;;;;;;;2.50;0.60;;;12.70;99.90;;;;;;5055826;28;20456;-77
2021/10/21 09:19:13;;;;;;;2.27;0.80;;;12.80;99.90;;;;;;5054360;28;20442;-76
2021/10/21 09:22:00;;;;;;;3.13;0.93;;;12.90;99.90;;;;;;5057468;28;20494;-77
2021/10/21 09:24:47;;;;;;;1.30;0.50;;;12.90;99.90;;;;;;5066361;28;20947;-76
2021/10/21 09:27:36;;;;;;;4.53;0.77;;;12.80;99.90;;;;;;5059019;28;20513;-77
2021/10/21 09:30:27;;;;;;;6.67;2.47;;;12.80;99.90;;;;;;5057802;28;20563;-78
2021/10/21 09:33:13;;;;;;;3.10;0.87;;;12.80;99.90;;;;;;5053481;28;21017;-77
2021/10/21 09:36:01;;;;;;;6.30;1.20;;;12.70;99.90;;;;;;5057358;28;20506;-78
2021/10/21 09:38:51;;;;;;;3.07;0.80;;;12.70;99.90;;;;;;5061349;28;21029;-77
2021/10/21 09:41:38;;;;;;;2.60;0.70;;;12.70;99.90;;;;;;5061705;28;20404;-77
2021/10/21 09:44:25;;;;;;;4.20;0.93;;;12.70;99.90;;;;;;5044377;28;20469;-76
2021/10/21 09:47:22;;;;;;;2.23;0.90;;;12.70;99.90;;;;;;5056332;28;20453;-77
2021/10/21 09:50:18;;;;;;;3.23;0.90;;;12.80;99.90;;;;;;5061535;28;20548;-77
2021/10/21 09:53:14;;;;;;;1.90;0.83;;;12.80;99.90;;;;;;5054008;28;20444;-78
2021/10/21 09:56:04;;;;;;;4.13;0.93;;;12.80;99.90;;;;;;5062990;28;20402;-77
2021/10/21 09:59:06;;;;;;;3.30;1.20;;;12.90;99.90;;;;;;5055046;28;20431;-78
2021/10/21 10:01:53;;;;;;;4.70;1.40;;;13.00;99.90;;;;;;5054922;28;20454;-77
2021/10/21 10:04:40;;;;;;;4.03;0.90;;;12.90;99.90;;;;;;5050307;28;20417;-76
2021/10/21 10:07:27;;;;;;;3.27;0.60;;;12.90;99.90;;;;;;5062159;28;20442;-77
2021/10/21 10:10:13;;;;;;;6.07;1.07;;;12.90;99.90;;;;;;5057955;28;20775;-76
2021/10/21 10:12:59;;;;;;;1.70;0.70;;;12.90;99.90;;;;;;5049702;28;20437;-76
2021/10/21 10:15:47;;;;;;;4.43;1.20;;;12.90;99.90;;;;;;5049165;28;20448;-76
2021/10/21 10:18:41;;;;;;;7.17;1.23;;;12.90;99.90;;;;;;5053457;28;20423;-76
2021/10/21 10:21:32;;;;;;;6.10;2.13;;;12.80;99.90;;;;;;5049508;28;20457;-75
2021/10/21 10:24:18;;;;;;;5.13;2.10;;;12.90;99.90;;;;;;5052843;28;21023;-76
2021/10/21 10:27:19;;;;;;;10.23;1.63;;;12.90;99.90;;;;;;5050608;28;20473;-76
2021/10/21 10:30:06;;;;;;;7.53;1.00;;;12.90;99.90;;;;;;5062034;28;20444;-77
2021/10/21 10:32:53;;;;;;;3.90;1.30;;;13.00;99.90;;;;;;5047948;28;20462;-77
2021/10/21 10:35:41;;;;;;;6.87;1.30;;;13.00;99.90;;;;;;5051691;28;20911;-77
2021/10/21 10:38:36;;;;;;;5.27;1.40;;;13.00;99.90;;;;;;5056144;28;20446;-76
2021/10/21 10:41:53;;;;;;;11.50;1.57;;;12.90;99.90;;;;;;5043415;22;21040;-76
2021/10/21 10:45:04;;;;;;;8.50;1.20;;;12.90;99.90;;;;;;4996452;28;20459;-76
2021/10/21 10:47:51;;;;;;;4.67;1.20;;;12.90;99.90;;;;;;5033920;28;20419;-75
2021/10/21 10:50:55;;;;;;;3.27;1.50;;;13.00;99.90;;;;;;5028217;28;20472;-75
2021/10/21 10:53:49;;;;;;;4.03;1.27;;;13.20;99.90;;;;;;5030752;28;20974;-75
2021/10/21 10:56:44;;;;;;;4.97;1.17;;;13.20;99.90;;;;;;5032419;28;20443;-75
2021/10/21 10:59:32;;;;;;;8.43;1.70;;;13.30;99.90;;;;;;5026900;28;20451;-75
2021/10/21 11:02:39;;;;;;;6.00;1.90;;;13.40;99.90;;;;;;5030794;28;20818;-75
2021/10/21 11:05:45;;;;;;;7.97;1.17;;;13.30;99.90;;;;;;5030013;28;20550;-75
2021/10/21 11:08:53;;;;;;;7.10;1.47;;;13.40;99.90;;;;;;5028388;28;20553;-75
2021/10/21 11:11:51;;;;;;;3.30;1.27;;;13.40;99.90;;;;;;5028884;28;20446;-75
2021/10/21 11:14:39;;;;;;;2.60;1.07;;;13.40;99.90;;;;;;5032165;28;20421;-75
2021/10/21 11:17:42;;;;;;;5.87;1.63;;;13.60;99.90;;;;;;5029695;28;20951;-75
2021/10/21 11:20:41;;;;;;;6.20;1.10;;;13.70;99.90;;;;;;5030914;28;20438;-75
2021/10/21 11:23:41;;;;;;;5.83;1.70;;;13.90;99.90;;;;;;5025710;28;20574;-75
2021/10/21 11:26:30;;;;;;;4.60;1.20;;;14.00;99.90;;;;;;5029017;28;20407;-74
2021/10/21 11:29:20;;;;;;;5.40;1.47;;;14.10;99.90;;;;;;5030748;28;20952;-74
2021/10/21 11:32:07;;;;;;;6.40;1.43;;;14.00;99.90;;;;;;5027505;28;20442;-74
2021/10/21 11:34:53;;;;;;;9.53;1.93;;;13.90;99.90;;;;;;5032969;28;20923;-74
2021/10/21 11:37:45;;;;;;;6.80;1.93;;;14.00;99.90;;;;;;5028293;28;20426;-74
2021/10/21 11:40:34;;;;;;;6.90;1.40;;;14.20;99.90;;;;;;5031343;28;20472;-74
2021/10/21 11:43:25;;;;;;;3.77;1.13;;;14.30;99.90;;;;;;5037351;28;20462;-74
2021/10/21 11:46:13;;;;;;;11.30;3.20;;;14.50;99.90;;;;;;5034113;28;20472;-75
2021/10/21 11:48:58;;;;;;;5.33;1.33;;;14.60;99.90;;;;;;5029667;28;20799;-75
2021/10/21 11:51:44;;;;;;;16.13;1.40;;;14.50;97.80;;;;;;5026437;28;20519;-75
2021/10/21 11:54:30;;;;;;;6.57;1.27;;;14.40;98.30;;;;;;5033195;28;20425;-74
2021/10/21 11:57:16;;;;;;;7.20;1.57;;;14.40;99.30;;;;;;5034604;28;20767;-75
2021/10/21 12:00:17;;;;;;;5.97;1.50;;;14.50;99.00;;;;;;5034690;28;20804;-75
2021/10/21 12:03:03;;;;;;;12.63;2.57;;;14.60;94.50;;;;;;5032724;28;20432;-75
2021/10/21 12:05:52;;;;;;;4.00;1.07;;;14.70;95.30;;;;;;5036021;28;20572;-75
2021/10/21 12:08:38;;;;;;;4.40;1.40;;;14.70;94.30;;;;;;5031605;28;20441;-75
2021/10/21 12:11:24;;;;;;;7.80;1.37;;;14.80;94.80;;;;;;5032704;28;20537;-75
2021/10/21 12:14:10;;;;;;;8.03;1.73;;;15.00;93.30;;;;;;5038709;28;20427;-74
2021/10/21 12:16:58;;;;;;;18.30;1.57;;;15.20;93.40;;;;;;5034116;28;20993;-75
2021/10/21 12:19:53;;;;;;;5.83;1.40;;;15.30;93.40;;;;;;5035683;28;20435;-75
2021/10/21 12:22:38;;;;;;;16.80;2.20;;;15.20;91.80;;;;;;5029248;28;20502;-75
2021/10/21 12:25:32;;;;;;;5.90;1.70;;;15.10;90.00;;;;;;5036201;28;20809;-75
2021/10/21 12:28:17;;;;;;;8.90;1.77;;;15.10;88.90;;;;;;5029387;28;20479;-75
2021/10/21 12:31:16;;;;;;;6.13;1.53;;;15.30;85.70;;;;;;5034830;28;20454;-72
2021/10/21 12:34:09;;;;;;;5.10;1.10;;;15.30;85.60;;;;;;5033289;28;20946;-74
2021/10/21 12:36:55;;;;;;;7.20;1.60;;;15.40;86.50;;;;;;5027787;28;20811;-74
2021/10/21 12:39:41;;;;;;;9.40;1.63;;;15.70;86.00;;;;;;5030737;28;20423;-74
2021/10/21 12:42:29;;;;;;;8.37;1.50;;;15.80;73.60;;;;;;5030996;28;20460;-74
2021/10/21 12:45:22;;;;;;;7.60;1.63;;;15.60;72.60;;;;;;5028992;28;20511;-74
2021/10/21 12:48:22;;;;;;;3.00;1.10;;;15.30;75.30;;;;;;5033198;28;20460;-74
2021/10/21 12:51:13;;;;;;;6.00;1.60;;;15.30;77.10;;;;;;5029778;28;20442;-74
2021/10/21 12:53:58;;;;;;;5.17;1.10;;;15.50;80.20;;;;;;5030240;28;20562;-74
2021/10/21 12:56:54;;;;;;;4.00;1.30;;;15.70;81.40;;;;;;5030039;28;20431;-76
2021/10/21 12:59:39;;;;;;;6.73;1.87;;;15.70;72.70;;;;;;5029568;28;20435;-76
2021/10/21 13:02:28;;;;;;;10.80;2.17;;;15.70;74.60;;;;;;5029531;28;20451;-76
2021/10/21 13:05:22;;;;;;;3.93;1.67;;;15.50;72.20;;;;;;5028624;28;20456;-76
2021/10/21 13:08:10;;;;;;;6.00;1.57;;;15.30;74.50;;;;;;5028087;28;20440;-76
2021/10/21 13:10:56;;;;;;;8.00;1.40;;;15.30;73.00;;;;;;5026855;28;20468;-76
2021/10/21 13:13:46;;;;;;;5.00;1.80;;;15.30;72.70;;;;;;5026039;28;20768;-76
2021/10/21 13:16:31;;;;;;;4.73;1.60;;;15.20;74.80;;;;;;5029694;28;21048;-76
2021/10/21 13:19:17;;;;;;;3.93;1.50;;;15.20;74.40;;;;;;5030683;28;20466;-76
2021/10/21 13:22:03;;;;;;;5.13;1.30;;;15.10;75.30;;;;;;5025998;28;20990;-75
2021/10/21 13:24:51;;;;;;;6.80;2.03;;;15.10;74.50;;;;;;5027197;28;20558;-76
2021/10/21 13:27:37;;;;;;;12.40;2.03;;;14.90;74.50;;;;;;5035870;28;20560;-75
2021/10/21 13:30:22;;;;;;;7.93;1.40;;;14.80;75.50;;;;;;5033509;28;20446;-75
2021/10/21 13:33:08;;;;;;;10.50;1.87;;;14.80;74.70;;;;;;5033517;28;21017;-75
2021/10/21 13:35:53;;;;;;;3.93;1.50;;;14.80;76.80;;;;;;5031968;28;20436;-75
2021/10/21 13:38:40;;;;;;;8.57;1.70;;;14.60;74.20;;;;;;5026104;28;20519;-76
2021/10/21 13:41:27;;;;;;;6.93;1.37;;;14.60;74.90;;;;;;5030804;28;20418;-76
2021/10/21 13:44:13;;;;;;;7.70;1.60;;;14.50;73.80;;;;;;5027422;28;20431;-75
2021/10/21 13:47:01;;;;;;;4.30;1.40;;;14.60;72.30;;;;;;5035405;28;20407;-76
2021/10/21 13:49:47;;;;;;;4.50;1.20;;;14.70;72.30;;;;;;5035695;28;20529;-75
2021/10/21 13:52:32;;;;;;;3.30;1.17;;;14.80;71.80;;;;;;5030779;28;20588;-75
2021/10/21 13:55:18;;;;;;;5.47;1.80;;;15.00;68.00;;;;;;5029218;28;20547;-76
2021/10/21 13:58:05;;;;;;;7.03;2.00;;;15.20;63.40;;;;;;5026725;28;20497;-76
2021/10/21 14:00:51;;;;;;;8.93;1.47;;;15.40;62.70;;;;;;5031734;28;20459;-76
2021/10/21 14:03:37;;;;;;;4.73;1.37;;;15.40;64.00;;;;;;5042499;28;20422;-76
2021/10/21 14:06:23;;;;;;;6.93;1.50;;;15.50;62.90;;;;;;5034978;28;20453;-76
2021/10/21 14:09:09;;;;;;;5.50;1.50;;;15.50;60.00;;;;;;5030729;28;20423;-75
2021/10/21 14:11:55;;;;;;;5.63;1.90;;;15.20;56.50;;;;;;5041430;28;20442;-76
2021/10/21 14:14:42;;;;;;;4.80;1.00;;;15.20;60.00;;;;;;5039109;28;20483;-76
2021/10/21 14:17:28;;;;;;;3.93;1.30;;;15.10;54.80;;;;;;5042283;28;20573;-76
2021/10/21 14:20:14;;;;;;;7.67;1.20;;;15.10;56.90;;;;;;5028619;28;20463;-76
2021/10/21 14:23:01;;;;;;;6.93;1.70;;;15.00;56.00;;;;;;5035358;28;20596;-76
2021/10/21 14:25:46;;;;;;;7.00;1.30;;;15.00;57.00;;;;;;5028023;28;20868;-76
2021/10/21 14:28:32;;;;;;;4.70;1.70;;;15.00;56.10;;;;;;5034167;28;20426;-75
2021/10/21 14:31:19;;;;;;;6.23;1.80;;;15.00;56.50;;;;;;5028198;28;20978;-76